Camp Appalachia, Virginia
Current Conditions -  °F | °C
As of 12:35 AM on Thursday 18 Dec 2014 (Local Time) from KHSP Reporting Station
Scattered Clouds Scattered Clouds  
Wind Chill: 10°   Ceiling: Unl
Heat Index: 24°   Visibility: 10mi
Dew Point: 20°   Wind: 20mph
Humidity: 85%   Direction: 290°WNW
Pressure: 29.92"   Gusts: 31mph
Location:  37.7731°N, 80.0632°W
Report Text: KHSP 180535Z AUTO 29017G27KT 10SM SCT012 SCT018 M04/M06 A2992 RMK AO2 T10431065
Loading
Personal Weather Stations






























Interactive Weather Map New forecast layout! Learn more

10-Day Weather Forecast

Advertisements
Track Severe Weather on mobile